Time;durP1;ratioP1;P1;durP2;ratioP2;P2;SDS_P1;SDS_P2;PMS_P1;PMS_P2;Temp;Humidity;BMP_temperature;BMP_pressure;BME280_temperature;BME280_humidity;BME280_pressure;Samples;Min_cycle;Max_cycle;Signal;HPM_P1;HPM_P2
2024/01/12 00:04:30;;;;;;;12.45;2.70;;;3.10;99.90;;;;;;20634241;28;20140;-40
2024/01/12 00:14:31;;;;;;;5.03;1.85;;;3.20;99.90;;;;;;20659069;28;20056;-41
2024/01/12 00:24:32;;;;;;;5.30;2.55;;;3.10;99.90;;;;;;20652500;28;20655;-41
2024/01/12 00:34:33;;;;;;;5.90;2.60;;;3.10;99.90;;;;;;20660671;28;20050;-40
2024/01/12 00:44:33;;;;;;;6.00;2.42;;;3.10;99.90;;;;;;20650015;28;20457;-41
2024/01/12 00:54:34;;;;;;;11.23;3.03;;;3.00;99.90;;;;;;20661134;28;20129;-40
2024/01/12 01:04:35;;;;;;;7.43;2.40;;;3.00;99.90;;;;;;20655595;28;20042;-40
2024/01/12 01:14:35;;;;;;;11.13;2.50;;;3.10;99.90;;;;;;20671971;28;20457;-40
2024/01/12 01:24:36;;;;;;;7.45;2.22;;;3.10;99.90;;;;;;20670915;28;20417;-40
2024/01/12 01:34:37;;;;;;;9.50;2.17;;;3.20;99.90;;;;;;20662652;28;20042;-40
2024/01/12 01:44:43;;;;;;;7.57;2.30;;;3.20;99.90;;;;;;20649817;28;20604;-40
2024/01/12 01:54:45;;;;;;;5.50;1.77;;;3.20;99.90;;;;;;20651723;28;20050;-40
2024/01/12 02:04:45;;;;;;;6.05;1.95;;;3.20;99.90;;;;;;20647665;28;20194;-40
2024/01/12 02:14:46;;;;;;;8.75;1.90;;;3.10;99.80;;;;;;20660431;28;20170;-40
2024/01/12 02:24:46;;;;;;;7.85;1.70;;;3.10;99.40;;;;;;20655222;28;20390;-40
2024/01/12 02:34:48;;;;;;;7.87;1.30;;;3.10;99.60;;;;;;20660105;28;20041;-40
2024/01/12 02:44:48;;;;;;;4.82;1.48;;;3.10;99.90;;;;;;20648569;28;20604;-40
2024/01/12 02:54:49;;;;;;;2.00;1.00;;;3.00;99.40;;;;;;20663112;28;20470;-40
2024/01/12 03:04:49;;;;;;;4.90;2.03;;;3.10;99.30;;;;;;20635012;28;20445;-40
2024/01/12 03:14:50;;;;;;;10.88;2.10;;;3.00;98.30;;;;;;20651502;28;20494;-39
2024/01/12 03:24:51;;;;;;;8.02;2.08;;;3.00;96.60;;;;;;20659821;28;21045;-38
2024/01/12 03:34:51;;;;;;;8.77;2.10;;;3.20;87.60;;;;;;20658327;28;20041;-38
2024/01/12 03:44:52;;;;;;;6.15;1.58;;;3.20;89.50;;;;;;20652850;28;20125;-38
2024/01/12 03:54:53;;;;;;;9.07;1.70;;;3.30;87.60;;;;;;20656129;28;20035;-38
2024/01/12 04:04:53;;;;;;;7.03;1.73;;;3.30;90.60;;;;;;20650666;28;20282;-39
2024/01/12 04:14:54;;;;;;;10.73;2.13;;;3.30;90.80;;;;;;20667285;28;21049;-38
2024/01/12 04:24:55;;;;;;;4.57;1.73;;;3.30;87.80;;;;;;20675316;28;20476;-38
2024/01/12 04:34:56;;;;;;;10.52;2.60;;;3.30;87.90;;;;;;20681547;28;20070;-39
2024/01/12 04:44:56;;;;;;;6.78;1.88;;;3.30;88.40;;;;;;20667819;28;20049;-38
2024/01/12 04:54:57;;;;;;;3.22;1.30;;;3.30;83.20;;;;;;20679217;28;20045;-39
2024/01/12 05:04:58;;;;;;;2.95;1.10;;;3.20;84.00;;;;;;20666363;28;20049;-39
2024/01/12 05:14:58;;;;;;;2.87;1.00;;;3.10;86.60;;;;;;20668303;28;20093;-38
2024/01/12 05:25:00;;;;;;;7.03;2.15;;;3.00;90.20;;;;;;20661867;28;20445;-38
2024/01/12 05:35:00;;;;;;;7.43;2.35;;;3.00;91.50;;;;;;20677880;28;20087;-38
2024/01/12 05:45:01;;;;;;;4.78;1.80;;;2.90;93.10;;;;;;20674660;28;20041;-38
2024/01/12 05:55:02;;;;;;;5.10;2.35;;;2.90;94.30;;;;;;20679318;28;20422;-38
2024/01/12 06:05:03;;;;;;;4.25;2.13;;;2.90;95.30;;;;;;20666912;28;20537;-39
2024/01/12 06:15:04;;;;;;;7.95;2.15;;;2.90;95.80;;;;;;20678335;28;20045;-38
2024/01/12 06:25:06;;;;;;;7.28;2.80;;;2.90;96.00;;;;;;20649330;28;20034;-38
2024/01/12 06:35:11;;;;;;;7.55;2.60;;;2.80;96.30;;;;;;20671876;28;20797;-38
2024/01/12 06:45:11;;;;;;;5.30;2.78;;;2.80;97.30;;;;;;20668938;28;20402;-38
2024/01/12 06:55:12;;;;;;;8.43;3.17;;;2.80;98.50;;;;;;20676150;28;20393;-38
2024/01/12 07:05:13;;;;;;;7.22;2.88;;;2.90;98.30;;;;;;20659829;28;20489;-38
2024/01/12 07:15:14;;;;;;;6.70;3.78;;;2.90;97.30;;;;;;20667325;28;20557;-38
2024/01/12 07:25:15;;;;;;;9.23;4.43;;;2.90;98.70;;;;;;20658084;28;20510;-38
2024/01/12 07:35:16;;;;;;;5.68;3.60;;;2.90;99.90;;;;;;20665872;28;20441;-39
2024/01/12 07:45:17;;;;;;;7.67;4.07;;;2.80;99.90;;;;;;20658709;28;20038;-38
2024/01/12 07:55:17;;;;;;;7.70;3.53;;;2.80;99.90;;;;;;20665128;28;20450;-38
2024/01/12 08:05:19;;;;;;;6.30;3.78;;;2.90;99.90;;;;;;20664754;28;20487;-38
2024/01/12 08:15:20;;;;;;;10.20;4.97;;;2.80;99.90;;;;;;20666780;28;20034;-39
2024/01/12 08:25:23;;;;;;;8.65;4.90;;;2.90;99.90;;;;;;20645949;28;20041;-39
2024/01/12 08:35:24;;;;;;;10.48;5.50;;;2.90;99.90;;;;;;20650907;28;20038;-38
2024/01/12 08:45:24;;;;;;;8.98;4.97;;;2.90;99.90;;;;;;20663011;28;20049;-39
2024/01/12 08:55:25;;;;;;;11.65;6.40;;;3.00;99.90;;;;;;20663845;28;20060;-39
2024/01/12 09:05:26;;;;;;;8.57;4.87;;;3.00;99.90;;;;;;20670190;28;20053;-39
2024/01/12 09:15:26;;;;;;;13.60;5.90;;;3.10;99.90;;;;;;20648118;28;20049;-39
2024/01/12 09:25:27;;;;;;;8.45;4.05;;;3.30;99.90;;;;;;20648921;28;20045;-39
2024/01/12 09:35:27;;;;;;;6.00;3.42;;;3.40;99.90;;;;;;20642879;28;20072;-39
2024/01/12 09:45:30;;;;;;;13.02;5.07;;;3.50;99.90;;;;;;20664765;28;20050;-39
2024/01/12 09:55:30;;;;;;;11.20;3.00;;;3.70;99.90;;;;;;20660875;28;20134;-38
2024/01/12 10:05:31;;;;;;;12.25;3.58;;;4.00;99.90;;;;;;20640286;28;20511;-38
2024/01/12 10:15:39;;;;;;;7.40;2.03;;;4.20;99.90;;;;;;20651286;28;20042;-38
2024/01/12 10:25:40;;;;;;;12.23;1.95;;;4.30;99.90;;;;;;20639608;28;20041;-39
2024/01/12 10:35:44;;;;;;;15.63;2.00;;;4.50;93.70;;;;;;20626946;28;20077;-38
2024/01/12 10:45:51;;;;;;;11.38;3.05;;;4.60;86.00;;;;;;20651033;28;20048;-38
2024/01/12 10:55:55;;;;;;;9.57;1.43;;;4.80;67.90;;;;;;20652672;28;20035;-38
2024/01/12 11:05:56;;;;;;;9.75;1.40;;;4.90;54.20;;;;;;20642225;28;20045;-39
2024/01/12 11:15:57;;;;;;;9.27;2.90;;;5.00;45.00;;;;;;20657187;28;20096;-39
2024/01/12 11:25:58;;;;;;;10.73;2.00;;;5.20;30.20;;;;;;20662425;28;20462;-39
2024/01/12 11:36:02;;;;;;;5.18;1.40;;;5.30;18.80;;;;;;20665537;28;20482;-39
2024/01/12 11:46:03;;;;;;;8.20;0.85;;;5.40;12.10;;;;;;20670030;28;20503;-39
2024/01/12 11:56:03;;;;;;;4.03;0.70;;;5.40;14.40;;;;;;20657789;28;20026;-39
2024/01/12 12:06:08;;;;;;;3.80;0.65;;;5.50;8.80;;;;;;20617105;28;20421;-38
2024/01/12 12:16:09;;;;;;;4.70;0.60;;;5.60;5.90;;;;;;20647907;28;20044;-39
2024/01/12 12:26:10;;;;;;;4.35;0.50;;;5.70;2.30;;;;;;20645913;28;20039;-39
2024/01/12 12:36:11;;;;;;;7.05;0.63;;;5.70;1.00;;;;;;20651213;28;20037;-38
2024/01/12 12:46:12;;;;;;;5.27;0.93;;;5.80;4.40;;;;;;20638677;28;20062;-39
2024/01/12 12:56:12;;;;;;;5.78;0.90;;;5.90;4.30;;;;;;20637335;28;20603;-40
2024/01/12 13:06:14;;;;;;;7.20;0.88;;;6.00;4.00;;;;;;20626082;28;20093;-41
2024/01/12 13:16:15;;;;;;;5.43;0.70;;;6.00;5.10;;;;;;20622146;28;20486;-41
2024/01/12 13:26:16;;;;;;;4.50;0.80;;;6.10;5.80;;;;;;20644988;28;20046;-40
2024/01/12 13:36:17;;;;;;;2.35;0.65;;;6.20;5.30;;;;;;20663295;28;20402;-41
2024/01/12 13:46:18;;;;;;;5.53;1.50;;;6.10;3.20;;;;;;20667762;28;20406;-41
2024/01/12 13:56:18;;;;;;;4.40;2.10;;;5.80;7.90;;;;;;20676858;28;20038;-41
2024/01/12 14:06:19;;;;;;;7.57;1.97;;;5.70;12.70;;;;;;20612214;28;20822;-40
2024/01/12 14:16:20;;;;;;;7.05;2.10;;;5.50;17.30;;;;;;20634892;28;20476;-41
2024/01/12 14:26:20;;;;;;;4.57;1.98;;;5.50;23.80;;;;;;20631760;28;20083;-40
2024/01/12 14:36:21;;;;;;;9.60;2.50;;;5.50;30.00;;;;;;20637644;28;20569;-41
2024/01/12 14:46:22;;;;;;;5.30;2.10;;;5.50;38.80;;;;;;20646007;28;20465;-41
2024/01/12 14:56:23;;;;;;;5.53;2.67;;;5.50;42.20;;;;;;20633042;28;20453;-41
2024/01/12 15:06:23;;;;;;;6.15;2.42;;;5.40;51.50;;;;;;20632406;28;20045;-41
2024/01/12 15:16:25;;;;;;;5.18;2.53;;;5.30;62.00;;;;;;20611399;28;20447;-41
2024/01/12 15:26:25;;;;;;;4.47;2.30;;;5.20;73.90;;;;;;20614315;28;20056;-41
2024/01/12 15:36:28;;;;;;;6.35;2.45;;;5.10;88.40;;;;;;20636592;28;20053;-41
2024/01/12 15:46:28;;;;;;;6.25;2.10;;;5.10;97.00;;;;;;20643970;28;20038;-42
2024/01/12 15:56:29;;;;;;;3.72;1.85;;;5.10;97.30;;;;;;20651057;28;20042;-42
2024/01/12 16:06:30;;;;;;;3.60;1.47;;;5.10;97.70;;;;;;20664974;28;20283;-43
2024/01/12 16:16:30;;;;;;;27.98;15.48;;;5.00;98.70;;;;;;20634666;28;20603;-42
2024/01/12 16:26:38;;;;;;;31.77;20.83;;;4.90;99.90;;;;;;20644346;28;20046;-42
2024/01/12 16:36:39;;;;;;;6.13;3.42;;;4.90;99.90;;;;;;20639226;28;20030;-42
2024/01/12 16:46:40;;;;;;;8.57;5.23;;;4.80;99.90;;;;;;20650237;28;20042;-42
2024/01/12 16:56:42;;;;;;;3.33;2.05;;;4.80;99.90;;;;;;20646419;28;20457;-42
2024/01/12 17:06:42;;;;;;;3.28;2.25;;;4.70;99.90;;;;;;20637362;28;20041;-42
2024/01/12 17:16:43;;;;;;;9.82;3.85;;;4.70;99.90;;;;;;20659950;28;20035;-43
2024/01/12 17:26:45;;;;;;;8.27;3.67;;;4.60;99.90;;;;;;20674997;28;20563;-42
2024/01/12 17:36:49;;;;;;;8.80;4.00;;;4.60;99.90;;;;;;20681512;28;20044;-42
2024/01/12 17:46:49;;;;;;;25.30;12.55;;;4.60;99.90;;;;;;20664423;28;20041;-43
2024/01/12 17:56:50;;;;;;;10.32;5.88;;;4.60;99.90;;;;;;20658599;28;20046;-42
2024/01/12 18:06:51;;;;;;;13.23;5.97;;;4.50;99.90;;;;;;20653664;28;20045;-42
2024/01/12 18:16:51;;;;;;;11.25;6.43;;;4.50;99.90;;;;;;20647455;28;20569;-42
2024/01/12 18:26:52;;;;;;;14.23;6.90;;;4.60;99.90;;;;;;20643691;28;20042;-42
2024/01/12 18:36:53;;;;;;;11.63;6.45;;;4.60;99.90;;;;;;20640382;28;20490;-42
2024/01/12 18:46:54;;;;;;;9.98;5.75;;;4.60;99.90;;;;;;20640641;28;20034;-42
2024/01/12 18:56:54;;;;;;;14.43;6.65;;;4.50;99.90;;;;;;20644681;28;20045;-42
2024/01/12 19:06:55;;;;;;;20.45;9.40;;;4.50;99.90;;;;;;20643619;28;20062;-42
2024/01/12 19:16:56;;;;;;;44.78;19.45;;;4.40;99.90;;;;;;20649198;28;20101;-41
2024/01/12 19:26:56;;;;;;;13.95;8.75;;;4.40;99.90;;;;;;20643978;28;20088;-42
2024/01/12 19:37:00;;;;;;;14.33;8.23;;;4.40;99.90;;;;;;20652576;28;20308;-40
2024/01/12 19:47:01;;;;;;;21.85;12.57;;;4.20;99.90;;;;;;20648278;28;20461;-41
2024/01/12 19:57:04;;;;;;;17.45;10.85;;;4.20;99.90;;;;;;20653945;28;20041;-41
2024/01/12 20:07:05;;;;;;;21.40;12.40;;;4.10;99.90;;;;;;20634886;28;20042;-41
2024/01/12 20:17:06;;;;;;;25.15;15.15;;;4.10;99.90;;;;;;20634772;28;20042;-41
2024/01/12 20:27:06;;;;;;;20.55;13.77;;;4.10;99.90;;;;;;20649867;28;20144;-41
2024/01/12 20:37:07;;;;;;;20.90;12.65;;;4.10;99.90;;;;;;20650459;28;20498;-42
2024/01/12 20:47:08;;;;;;;23.25;13.45;;;4.10;99.90;;;;;;20657579;28;20121;-42
2024/01/12 20:57:10;;;;;;;22.30;12.00;;;4.00;99.90;;;;;;20665649;28;20044;-41
2024/01/12 21:07:10;;;;;;;20.45;11.93;;;4.20;99.90;;;;;;20657245;28;20042;-41
2024/01/12 21:17:11;;;;;;;18.23;11.10;;;4.20;99.90;;;;;;20651107;28;20038;-41
2024/01/12 21:27:12;;;;;;;14.48;9.48;;;4.10;99.90;;;;;;20655329;28;20921;-41
2024/01/12 21:37:12;;;;;;;10.32;6.90;;;4.20;99.90;;;;;;20665910;28;20122;-41
2024/01/12 21:47:13;;;;;;;11.00;7.43;;;4.30;99.90;;;;;;20665624;28;20045;-41
2024/01/12 21:57:14;;;;;;;14.23;7.63;;;4.20;99.90;;;;;;20676634;28;20523;-41
2024/01/12 22:07:14;;;;;;;9.95;6.72;;;4.20;99.90;;;;;;20661669;28;20037;-41
2024/01/12 22:17:15;;;;;;;12.70;6.38;;;4.20;99.90;;;;;;20671364;28;20477;-41
2024/01/12 22:27:16;;;;;;;9.70;5.22;;;4.20;99.90;;;;;;20668777;28;20054;-41
2024/01/12 22:37:17;;;;;;;7.50;4.60;;;4.20;99.90;;;;;;20665186;28;20300;-40
2024/01/12 22:47:17;;;;;;;7.47;4.22;;;4.10;99.90;;;;;;20674634;28;20603;-41
2024/01/12 22:57:18;;;;;;;6.93;3.50;;;4.10;99.90;;;;;;20670071;28;20035;-41
2024/01/12 23:07:18;;;;;;;9.40;4.82;;;4.10;99.90;;;;;;20663818;28;20391;-41
2024/01/12 23:17:19;;;;;;;7.40;4.05;;;4.20;99.90;;;;;;20661856;28;20041;-41
2024/01/12 23:27:20;;;;;;;11.55;5.40;;;4.30;99.90;;;;;;20662211;28;20406;-41
2024/01/12 23:37:22;;;;;;;9.20;5.43;;;4.20;99.90;;;;;;20661733;28;20081;-41
2024/01/12 23:47:22;;;;;;;8.45;5.47;;;4.30;99.90;;;;;;20657704;28;20498;-42
2024/01/12 23:57:23;;;;;;;10.73;6.82;;;4.40;99.90;;;;;;20653248;28;20378;-42
